Time;durP1;ratioP1;P1;durP2;ratioP2;P2;SDS_P1;SDS_P2;PMS_P1;PMS_P2;Temp;Humidity;BMP_temperature;BMP_pressure;BME280_temperature;BME280_humidity;BME280_pressure;Samples;Min_cycle;Max_cycle;Signal;HPM_P1;HPM_P2
2023/02/04 00:05:32;;;;;;;32.10;9.30;;;;;;;1.98;100.00;98207.05;268121;1277;22533;-90
2023/02/04 00:11:36;;;;;;;19.80;8.20;;;;;;;2.01;100.00;98198.75;267971;1277;22616;-91
2023/02/04 00:17:41;;;;;;;25.20;8.80;;;;;;;2.07;100.00;98197.39;267659;1276;23358;-91
2023/02/04 00:23:47;;;;;;;29.40;8.70;;;;;;;2.11;100.00;98198.75;267910;1277;24256;-92
2023/02/04 00:29:55;;;;;;;23.80;10.00;;;;;;;2.14;100.00;98197.55;267966;1275;22597;-91
2023/02/04 00:35:57;;;;;;;18.40;7.20;;;;;;;2.16;100.00;98202.92;267943;1277;22572;-93
2023/02/04 00:42:02;;;;;;;20.60;6.50;;;;;;;2.17;100.00;98202.56;268024;1277;25365;-92
2023/02/04 00:48:06;;;;;;;21.00;6.90;;;;;;;2.19;100.00;98194.92;268353;1277;23389;-92
2023/02/04 00:54:10;;;;;;;24.90;7.70;;;;;;;2.21;100.00;98190.82;268001;1277;22600;-91
2023/02/04 01:00:14;;;;;;;22.30;8.10;;;;;;;2.23;100.00;98185.70;267989;1274;22546;-92
2023/02/04 01:06:25;;;;;;;13.50;5.80;;;;;;;2.25;100.00;98182.59;267910;1277;25464;-92
2023/02/04 01:12:28;;;;;;;16.90;6.20;;;;;;;2.27;100.00;98175.56;267931;1276;25321;-91
2023/02/04 01:18:33;;;;;;;12.50;5.70;;;;;;;2.31;100.00;98166.49;267848;1276;23166;-92
2023/02/04 01:24:39;;;;;;;14.90;5.20;;;;;;;2.31;100.00;98157.41;268051;1276;22522;-92
2023/02/04 01:31:02;;;;;;;10.40;5.10;;;;;;;2.29;100.00;98138.20;268193;1274;22504;-91
2023/02/04 01:37:06;;;;;;;11.00;4.90;;;;;;;2.29;100.00;98138.59;268690;1277;24245;-93
2023/02/04 01:43:10;;;;;;;12.20;5.70;;;;;;;2.29;100.00;98133.73;268552;1276;22578;-92
2023/02/04 01:49:14;;;;;;;9.70;5.20;;;;;;;2.32;100.00;98128.33;268096;1276;22539;-92
2023/02/04 01:55:21;;;;;;;15.30;5.20;;;;;;;2.34;100.00;98129.71;268019;1276;23322;-92
2023/02/04 02:01:43;;;;;;;9.60;4.80;;;;;;;2.35;100.00;98124.73;268338;1276;22594;-92
2023/02/04 02:07:49;;;;;;;9.80;4.30;;;;;;;2.39;100.00;98124.52;268091;1276;22535;-91
2023/02/04 02:13:56;;;;;;;7.50;3.70;;;;;;;2.40;100.00;98125.17;268182;1276;23423;-93
2023/02/04 02:20:00;;;;;;;10.20;3.40;;;;;;;2.41;100.00;98131.54;269535;1276;23341;-94
2023/02/04 02:26:05;;;;;;;5.10;3.40;;;;;;;2.40;100.00;98135.38;268203;1276;22612;-93
2023/02/04 02:32:10;;;;;;;7.00;3.40;;;;;;;2.40;100.00;98159.58;268690;1276;26622;-92
2023/02/04 02:38:17;;;;;;;5.60;3.40;;;;;;;2.40;100.00;98174.10;268414;1276;22560;-92
2023/02/04 02:44:21;;;;;;;6.00;3.40;;;;;;;2.37;100.00;98175.70;268074;1276;23278;-92
2023/02/04 02:50:28;;;;;;;5.70;3.20;;;;;;;2.29;100.00;98179.96;267483;1276;22571;-91
2023/02/04 02:56:33;;;;;;;10.50;5.60;;;;;;;2.20;100.00;98178.51;267621;1276;23076;-91
2023/02/04 03:02:43;;;;;;;4.40;3.30;;;;;;;2.12;100.00;98176.27;267919;1276;23788;-93
2023/02/04 03:08:48;;;;;;;6.00;3.00;;;;;;;2.05;100.00;98191.29;267786;1276;22579;-92
2023/02/04 03:14:54;;;;;;;;;;;;;;;2.00;100.00;98206.19;268459;1276;22577;-92
2023/02/04 03:21:05;;;;;;;10.10;4.90;;;;;;;1.95;100.00;98207.20;268557;1276;22558;-93
2023/02/04 03:27:09;;;;;;;12.90;5.80;;;;;;;1.90;100.00;98219.30;268742;1275;22536;-92
2023/02/04 03:33:14;;;;;;;4.70;3.00;;;;;;;1.84;100.00;98237.39;268036;1276;22587;-92
2023/02/04 03:39:27;;;;;;;3.80;2.10;;;;;;;1.81;100.00;98258.44;268503;1276;23592;-92
2023/02/04 03:45:31;;;;;;;5.60;2.30;;;;;;;1.75;100.00;98274.23;268248;1276;22544;-92
2023/02/04 03:51:35;;;;;;;5.70;2.30;;;;;;;1.67;100.00;98287.77;267858;1276;25382;-93
2023/02/04 03:57:39;;;;;;;4.80;1.80;;;;;;;1.57;100.00;98300.31;267647;1276;22543;-91
2023/02/04 04:03:42;;;;;;;2.30;1.80;;;;;;;1.50;100.00;98309.90;268002;1276;22616;-91
2023/02/04 04:09:54;;;;;;;4.30;2.50;;;;;;;1.46;100.00;98328.09;268021;1276;22699;-93
2023/02/04 04:16:36;;;;;;;3.10;1.90;;;;;;;1.41;100.00;98347.20;268129;1276;22558;-91
2023/02/04 04:22:42;;;;;;;2.60;1.70;;;;;;;1.35;100.00;98362.21;268241;1275;22547;-92
2023/02/04 04:28:47;;;;;;;2.30;1.60;;;;;;;1.23;100.00;98377.73;268049;1276;22517;-93
2023/02/04 04:34:53;;;;;;;3.80;2.10;;;;;;;1.11;100.00;98398.60;268166;1275;22668;-92
2023/02/04 04:40:58;;;;;;;4.30;2.30;;;;;;;0.92;100.00;98443.11;268137;1275;24222;-92
2023/02/04 04:47:02;;;;;;;7.80;3.00;;;;;;;0.71;100.00;98482.83;268451;1276;23242;-92
2023/02/04 04:53:25;;;;;;;24.00;8.40;;;;;;;0.51;100.00;98515.77;268097;1276;22686;-93
2023/02/04 04:59:29;;;;;;;12.70;6.00;;;;;;;0.30;100.00;98550.78;268173;1276;22561;-93
2023/02/04 05:05:38;;;;;;;10.30;6.50;;;;;;;0.14;100.00;98588.92;268218;1259;22550;-91
2023/02/04 05:11:41;;;;;;;12.00;6.60;;;;;;;-0.00;100.00;98629.58;268109;1275;23383;-91
2023/02/04 05:17:43;;;;;;;15.60;6.10;;;;;;;-0.07;100.00;98668.63;268157;1275;22599;-91
2023/02/04 05:23:52;;;;;;;12.50;6.00;;;;;;;-0.20;100.00;98713.65;268566;1275;22582;-92
2023/02/04 05:29:57;;;;;;;8.20;5.50;;;;;;;-0.38;100.00;98755.80;268606;1276;22536;-91
2023/02/04 05:36:00;;;;;;;7.70;4.60;;;;;;;-0.50;100.00;98799.98;268935;1276;22592;-90
2023/02/04 05:42:02;;;;;;;13.50;7.00;;;;;;;-0.60;100.00;98839.92;268990;1276;22561;-92
2023/02/04 05:48:04;;;;;;;10.90;5.70;;;;;;;-0.68;100.00;98878.49;268210;1275;23296;-90
2023/02/04 05:54:07;;;;;;;6.20;4.30;;;;;;;-0.76;100.00;98909.76;267977;1276;25479;-92
2023/02/04 06:00:11;;;;;;;8.90;5.20;;;;;;;-0.81;100.00;98945.36;268223;1275;22554;-89
2023/02/04 06:06:17;;;;;;;9.90;4.70;;;;;;;-0.86;100.00;98987.11;267926;1276;22552;-88
2023/02/04 06:12:20;;;;;;;11.70;4.30;;;;;;;-0.91;100.00;99027.75;267913;1275;22606;-90
2023/02/04 06:18:23;;;;;;;6.10;3.90;;;;;;;-0.92;100.00;99064.89;268054;1276;22617;-89
2023/02/04 06:24:25;;;;;;;8.10;4.40;;;;;;;-0.98;100.00;99098.02;267776;1275;24005;-91
2023/02/04 06:30:28;;;;;;;6.00;4.00;;;;;;;-1.04;100.00;99132.08;267933;1276;22566;-91
2023/02/04 06:36:30;;;;;;;8.20;3.70;;;;;;;-1.09;100.00;99173.39;267894;1276;25315;-90
2023/02/04 06:42:33;;;;;;;9.00;4.90;;;;;;;-1.11;100.00;99212.02;267619;1276;24418;-89
2023/02/04 06:48:35;;;;;;;12.40;5.80;;;;;;;-1.15;100.00;99247.07;267896;1276;22561;-91
2023/02/04 06:54:37;;;;;;;17.40;6.10;;;;;;;-1.15;100.00;99280.31;267987;1276;22540;-91
2023/02/04 07:00:40;;;;;;;5.30;3.70;;;;;;;-1.15;100.00;99317.05;268212;1276;24267;-89
2023/02/04 07:06:52;;;;;;;10.00;4.40;;;;;;;-1.15;100.00;99350.64;268383;1276;23824;-91
2023/02/04 07:12:56;;;;;;;6.20;3.70;;;;;;;-1.17;100.00;99380.87;268426;1271;22543;-90
2023/02/04 07:19:01;;;;;;;7.30;3.90;;;;;;;-1.18;100.00;99406.08;268466;1276;22536;-91
2023/02/04 07:25:03;;;;;;;6.70;4.00;;;;;;;-1.18;100.00;99433.85;268168;1276;25316;-93
2023/02/04 07:31:08;;;;;;;9.80;4.40;;;;;;;-1.16;100.00;99463.77;268002;1276;22536;-91
2023/02/04 07:37:14;;;;;;;5.70;3.40;;;;;;;-1.17;100.00;99492.02;268178;1276;22545;-92
2023/02/04 07:43:16;;;;;;;6.90;3.90;;;;;;;-1.17;100.00;99516.52;267767;1276;23782;-92
2023/02/04 07:49:20;;;;;;;8.20;4.60;;;;;;;-1.17;100.00;99547.10;267871;1276;22707;-91
2023/02/04 07:55:25;;;;;;;5.50;3.80;;;;;;;-1.17;100.00;99572.52;267730;1264;22557;-91
2023/02/04 08:01:29;;;;;;;10.50;5.00;;;;;;;-1.15;100.00;99594.96;267678;1276;24220;-92
2023/02/04 08:07:35;;;;;;;6.80;3.90;;;;;;;-1.14;100.00;99622.83;267798;1267;22552;-90
2023/02/04 08:13:39;;;;;;;6.70;3.40;;;;;;;-1.13;100.00;99640.02;266425;1276;1934594;-92
2023/02/04 08:19:42;;;;;;;5.90;3.60;;;;;;;-1.10;100.00;99650.89;268779;1276;22563;-91
2023/02/04 08:25:45;;;;;;;11.20;4.30;;;;;;;-1.09;100.00;99663.78;268343;1265;22555;-91
2023/02/04 08:31:48;;;;;;;6.80;3.40;;;;;;;-1.08;100.00;99680.48;267909;1274;22647;-91
2023/02/04 08:37:52;;;;;;;8.50;4.20;;;;;;;-1.03;100.00;99697.42;267747;1276;22746;-92
2023/02/04 08:43:56;;;;;;;10.00;4.00;;;;;;;-0.94;100.00;99714.77;267887;1276;23238;-91
2023/02/04 08:49:59;;;;;;;8.20;3.60;;;;;;;-0.89;100.00;99730.95;268439;1276;22644;-90
2023/02/04 08:56:07;;;;;;;6.00;3.30;;;;;;;-0.87;100.00;99750.34;268273;1276;24321;-90
2023/02/04 09:15:04;;;;;;;6.20;3.80;;;;;;;-0.55;100.00;99807.65;265288;1305;545089;-88
2023/02/04 09:21:06;;;;;;;6.80;3.60;;;;;;;-0.49;100.00;99813.90;273593;1269;22413;-88
2023/02/04 09:27:08;;;;;;;8.90;4.10;;;;;;;-0.46;100.00;99823.00;271671;1267;114151;-87
2023/02/04 09:33:11;;;;;;;9.90;4.90;;;;;;;-0.35;100.00;99827.74;270368;1266;23603;-87
2023/02/04 09:39:13;;;;;;;9.90;4.90;;;;;;;-0.34;100.00;99839.73;270370;1266;23778;-87
2023/02/04 09:45:22;;;;;;;8.60;4.40;;;;;;;-0.29;100.00;99847.48;272918;1269;22382;-88
2023/02/04 09:51:28;;;;;;;8.90;5.30;;;;;;;-0.30;99.82;99865.73;273702;1267;23591;-87
2023/02/04 09:57:30;;;;;;;9.30;4.70;;;;;;;-0.19;100.00;99881.52;273048;1267;22843;-87
2023/02/04 10:03:34;;;;;;;10.80;5.50;;;;;;;0.26;100.00;99891.35;270223;1258;22667;-87
2023/02/04 10:09:36;;;;;;;11.40;5.60;;;;;;;0.41;99.36;99894.02;273830;1267;22416;-86
2023/02/04 10:15:39;;;;;;;8.40;5.20;;;;;;;0.17;99.35;99913.09;273858;1268;22395;-87
2023/02/04 10:21:43;;;;;;;9.00;5.30;;;;;;;-0.05;99.72;99923.80;273750;1267;22514;-87
2023/02/04 10:27:54;;;;;;;14.30;7.10;;;;;;;-0.30;99.23;99936.02;273678;1269;22380;-87
2023/02/04 10:34:11;;;;;;;9.10;5.50;;;;;;;-0.38;99.46;99947.21;272647;1267;22410;-87
2023/02/04 10:40:24;;;;;;;21.70;7.40;;;;;;;-0.39;99.89;99956.95;273812;1267;22338;-87
2023/02/04 10:46:29;;;;;;;9.20;5.70;;;;;;;-0.19;99.67;99962.79;272801;1267;22547;-87
2023/02/04 10:52:46;;;;;;;10.90;5.10;;;;;;;0.22;98.15;99970.11;273493;1266;22532;-87
2023/02/04 10:58:48;;;;;;;13.70;4.90;;;;;;;0.65;95.66;99980.95;273356;1257;22465;-88
2023/02/04 11:04:50;;;;;;;7.10;3.70;;;;;;;0.86;93.35;99988.16;273457;1267;22359;-88
2023/02/04 11:11:02;;;;;;;10.50;4.50;;;;;;;0.66;92.44;99997.21;270467;1267;22578;-87
2023/02/04 11:17:04;;;;;;;11.30;4.30;;;;;;;0.83;91.25;99995.07;271698;1267;22541;-86
2023/02/04 11:23:24;;;;;;;6.10;2.80;;;;;;;0.67;90.17;99996.13;272555;1269;22196;-87
2023/02/04 11:29:33;;;;;;;6.70;3.70;;;;;;;0.57;89.75;100003.19;273238;1267;22403;-87
2023/02/04 11:35:35;;;;;;;5.80;3.50;;;;;;;0.52;88.99;100009.48;272509;1268;22400;-87
2023/02/04 11:41:37;;;;;;;26.80;8.20;;;;;;;0.11;87.55;100020.31;272310;1266;22405;-87
2023/02/04 11:47:39;;;;;;;5.80;3.50;;;;;;;-0.08;87.27;100024.16;273698;1268;22426;-85
2023/02/04 11:53:41;;;;;;;7.10;4.40;;;;;;;0.08;87.61;100019.63;273129;1270;22411;-86
2023/02/04 11:59:43;;;;;;;5.70;3.20;;;;;;;0.09;86.53;100029.05;273595;1259;22352;-85
2023/02/04 12:05:46;;;;;;;8.80;3.80;;;;;;;0.10;85.64;100049.66;273315;1269;25398;-85
2023/02/04 12:11:52;;;;;;;5.50;3.50;;;;;;;0.17;84.48;100063.50;272095;1269;22248;-85
2023/02/04 12:18:06;;;;;;;5.80;4.10;;;;;;;0.22;83.28;100077.25;273551;1268;22281;-86
2023/02/04 12:24:08;;;;;;;6.80;3.00;;;;;;;-0.03;80.13;100084.37;273216;1267;22399;-86
2023/02/04 12:30:11;;;;;;;11.40;3.70;;;;;;;-0.25;78.85;100092.20;273285;1268;22630;-86
2023/02/04 12:36:13;;;;;;;3.80;2.20;;;;;;;-0.25;79.99;100095.38;273571;1261;22429;-84
2023/02/04 12:42:15;;;;;;;5.80;2.60;;;;;;;-0.20;78.51;100108.21;273378;1269;23588;-85
2023/02/04 12:48:17;;;;;;;5.10;1.80;;;;;;;-0.36;77.57;100117.98;273425;1266;22506;-85
2023/02/04 12:54:20;;;;;;;7.60;2.50;;;;;;;-0.57;78.31;100137.70;270858;1269;24926;-86
2023/02/04 13:00:22;;;;;;;7.00;2.50;;;;;;;-0.72;78.91;100145.56;273562;1269;23318;-85
2023/02/04 13:06:24;;;;;;;12.20;5.10;;;;;;;-0.81;79.43;100158.39;271413;1269;24487;-85
2023/02/04 13:12:52;;;;;;;22.30;5.70;;;;;;;-0.83;78.86;100167.90;270877;1269;22534;-86
2023/02/04 13:18:54;;;;;;;5.70;2.20;;;;;;;-0.91;79.07;100179.64;270458;1265;22552;-85
2023/02/04 13:24:55;;;;;;;10.50;4.50;;;;;;;-0.94;78.73;100184.95;269701;1260;23831;-87
2023/02/04 13:30:57;;;;;;;6.90;2.50;;;;;;;-0.96;78.90;100187.48;269378;1269;22567;-86
2023/02/04 13:37:01;;;;;;;8.60;3.00;;;;;;;-0.95;79.70;100189.64;270044;1269;22771;-88
2023/02/04 13:43:03;;;;;;;5.00;2.40;;;;;;;-1.03;79.59;100192.06;269925;1266;26460;-87
2023/02/04 13:49:04;;;;;;;6.20;2.70;;;;;;;-1.11;80.56;100193.15;270206;1269;22575;-86
2023/02/04 13:55:07;;;;;;;6.30;1.90;;;;;;;-1.08;80.65;100194.48;272612;1270;22505;-85
2023/02/04 14:01:10;;;;;;;4.10;2.00;;;;;;;-1.14;80.34;100200.98;272446;1269;25211;-86
2023/02/04 14:07:11;;;;;;;4.30;1.70;;;;;;;-1.12;80.68;100202.77;270386;1268;23408;-86
2023/02/04 14:13:13;;;;;;;6.90;3.40;;;;;;;-1.08;80.90;100210.83;271534;1267;22370;-87
2023/02/04 14:19:15;;;;;;;7.10;3.20;;;;;;;-1.08;81.16;100219.55;273573;1267;22458;-86
2023/02/04 14:25:17;;;;;;;7.80;2.90;;;;;;;-1.06;81.25;100225.61;273208;1269;22538;-87
2023/02/04 14:31:19;;;;;;;9.60;4.40;;;;;;;-0.91;81.92;100228.55;271698;1269;22244;-87
2023/02/04 14:37:24;;;;;;;7.40;3.60;;;;;;;-0.82;82.29;100236.67;273744;1269;23033;-87
2023/02/04 14:43:26;;;;;;;10.80;4.10;;;;;;;-0.81;82.44;100239.95;272619;1267;22469;-88
2023/02/04 14:49:29;;;;;;;8.50;4.40;;;;;;;-0.79;82.67;100249.89;271284;1268;23682;-89
2023/02/04 14:55:31;;;;;;;10.50;4.00;;;;;;;-0.80;82.82;100263.06;272343;1267;22469;-88
2023/02/04 15:01:33;;;;;;;9.20;3.70;;;;;;;-0.87;82.90;100267.05;271124;1269;22202;-89
2023/02/04 15:07:53;;;;;;;7.70;3.40;;;;;;;-0.97;83.26;100267.31;273646;1269;22239;-89
2023/02/04 15:13:55;;;;;;;8.80;3.80;;;;;;;-1.06;83.00;100263.50;273417;1266;22424;-89
2023/02/04 15:20:02;;;;;;;5.50;2.50;;;;;;;-1.11;83.28;100273.27;273531;1260;22579;-89
2023/02/04 15:26:04;;;;;;;13.30;4.70;;;;;;;-1.14;83.26;100285.86;273541;1269;22569;-90
2023/02/04 15:32:06;;;;;;;8.20;3.60;;;;;;;-1.21;83.82;100297.39;272983;1269;22351;-90
2023/02/04 15:38:09;;;;;;;10.50;3.60;;;;;;;-1.25;83.27;100304.70;272908;1269;23940;-91
2023/02/04 15:44:11;;;;;;;10.20;3.90;;;;;;;-1.32;83.66;100310.87;270657;1268;22550;-91
2023/02/04 15:50:16;;;;;;;14.20;5.20;;;;;;;-1.36;84.40;100313.42;272195;1269;22451;-90
2023/02/04 15:56:18;;;;;;;11.80;4.50;;;;;;;-1.41;84.73;100311.38;272564;1269;22415;-89
2023/02/04 16:02:20;;;;;;;15.80;6.10;;;;;;;-1.44;85.14;100327.11;273080;1269;22441;-89
2023/02/04 16:08:22;;;;;;;16.40;6.60;;;;;;;-1.43;85.82;100334.15;273688;1269;22523;-89
2023/02/04 16:14:24;;;;;;;17.60;7.80;;;;;;;-1.44;85.77;100337.16;272046;1269;22564;-88
2023/02/04 16:20:28;;;;;;;14.80;5.60;;;;;;;-1.47;85.89;100341.02;271057;1269;23031;-88
2023/02/04 16:26:31;;;;;;;13.40;5.00;;;;;;;-1.48;86.47;100350.25;271195;1267;22437;-89
2023/02/04 16:32:33;;;;;;;17.40;7.00;;;;;;;-1.48;86.91;100353.90;272309;1268;25449;-88
2023/02/04 16:38:41;;;;;;;12.80;5.90;;;;;;;-1.47;87.08;100360.84;272866;1269;22492;-88
2023/02/04 16:45:01;;;;;;;10.00;4.00;;;;;;;-1.53;87.15;100362.38;273018;1269;25323;-87
2023/02/04 16:51:07;;;;;;;15.60;5.60;;;;;;;-1.59;87.46;100363.64;272011;1268;22654;-88
2023/02/04 16:57:11;;;;;;;12.40;5.60;;;;;;;-1.67;87.60;100368.34;271088;1270;23323;-87
2023/02/04 17:03:13;;;;;;;19.10;7.60;;;;;;;-1.75;87.91;100372.33;273756;1270;22306;-88
2023/02/04 17:09:15;;;;;;;16.40;6.90;;;;;;;-1.78;88.34;100374.30;273495;1269;22467;-87
2023/02/04 17:15:17;;;;;;;15.70;7.00;;;;;;;-1.79;88.78;100369.77;273192;1267;22462;-86
2023/02/04 17:21:20;;;;;;;20.60;10.00;;;;;;;-1.80;88.98;100372.60;273585;1266;22340;-87
2023/02/04 17:27:22;;;;;;;23.00;9.00;;;;;;;-1.80;89.14;100375.98;272184;1267;22676;-87
2023/02/04 17:33:27;;;;;;;17.60;7.80;;;;;;;-1.81;89.91;100377.49;273505;1267;23434;-87
2023/02/04 17:39:29;;;;;;;17.00;7.30;;;;;;;-1.84;90.33;100372.70;273699;1267;22214;-86
2023/02/04 17:45:31;;;;;;;19.10;8.40;;;;;;;-1.85;90.88;100376.66;273503;1267;22346;-87
2023/02/04 17:51:47;;;;;;;28.10;10.00;;;;;;;-1.86;91.32;100377.25;273762;1257;22293;-88
2023/02/04 17:57:50;;;;;;;22.00;9.80;;;;;;;-1.84;91.95;100382.84;272741;1267;25461;-87
2023/02/04 18:04:27;;;;;;;24.40;9.90;;;;;;;-1.82;92.41;100373.88;273910;1267;22307;-87
2023/02/04 18:10:32;;;;;;;26.00;10.80;;;;;;;-1.84;92.61;100374.74;273847;1267;22295;-87
2023/02/04 18:16:35;;;;;;;27.30;11.90;;;;;;;-1.86;93.11;100375.49;273696;1267;22416;-86
2023/02/04 18:22:37;;;;;;;32.70;12.40;;;;;;;-1.84;93.96;100375.01;272973;1267;22338;-87
2023/02/04 18:28:42;;;;;;;30.90;12.80;;;;;;;-1.85;94.56;100371.14;273484;1267;23178;-87
2023/02/04 18:35:34;;;;;;;33.90;13.50;;;;;;;-1.87;95.18;100369.58;273722;1261;22287;-86
2023/02/04 18:41:44;;;;;;;28.50;11.90;;;;;;;-1.93;95.66;100374.47;272714;1267;23261;-87
2023/02/04 18:47:46;;;;;;;33.30;12.90;;;;;;;-1.99;96.11;100385.02;273787;1268;22370;-86
2023/02/04 18:53:48;;;;;;;24.50;10.70;;;;;;;-2.05;95.97;100391.70;273876;1270;22356;-87
2023/02/04 19:00:10;;;;;;;26.30;12.10;;;;;;;-2.08;96.33;100391.72;273753;1257;23058;-86
2023/02/04 19:06:39;;;;;;;27.90;12.80;;;;;;;-2.09;97.10;100395.25;272337;1254;22450;-87
2023/02/04 19:12:41;;;;;;;29.40;12.60;;;;;;;-2.12;97.30;100404.47;273810;1254;22616;-86
2023/02/04 19:18:53;;;;;;;20.20;10.10;;;;;;;-2.16;97.46;100405.57;274008;1257;22438;-87
2023/02/04 19:24:59;;;;;;;21.80;9.00;;;;;;;-2.22;97.24;100409.92;273748;1268;22305;-86
2023/02/04 19:31:04;;;;;;;;;;;;;;;-2.27;97.16;100417.24;273540;1269;22399;-86
2023/02/04 19:37:41;;;;;;;17.70;7.70;;;;;;;-2.29;95.90;100435.24;273650;1255;22311;-85
2023/02/04 19:43:43;;;;;;;;;;;;;;;-2.37;95.32;100445.42;273577;1259;22995;-86
2023/02/04 19:49:46;;;;;;;11.80;5.20;;;;;;;-2.44;95.20;100449.70;274066;1270;22219;-86
2023/02/04 19:55:52;;;;;;;16.80;6.60;;;;;;;-2.46;94.92;100453.92;273857;1267;22190;-85
2023/02/04 20:02:13;;;;;;;9.20;4.40;;;;;;;-2.45;94.87;100461.38;273755;1269;22472;-85
2023/02/04 20:09:13;;;;;;;14.00;5.40;;;;;;;-2.42;94.64;100468.12;273875;1257;23739;-85
2023/02/04 20:15:18;;;;;;;14.00;4.40;;;;;;;-2.38;94.58;100472.08;273837;1269;23265;-85
2023/02/04 20:22:01;;;;;;;14.60;5.70;;;;;;;-2.37;94.33;100474.18;273981;1269;23546;-84
2023/02/04 20:28:48;;;;;;;11.80;6.30;;;;;;;-2.38;94.32;100479.21;273935;1269;22884;-85
2023/02/04 20:35:06;;;;;;;14.90;5.50;;;;;;;-2.44;94.27;100476.20;273727;1269;22328;-84
2023/02/04 20:41:18;;;;;;;12.00;6.10;;;;;;;-2.45;94.24;100485.09;273880;1260;22304;-84
2023/02/04 20:47:24;;;;;;;13.60;7.30;;;;;;;-2.45;94.27;100493.02;273613;1259;22260;-84
2023/02/04 20:53:31;;;;;;;26.50;8.50;;;;;;;-2.43;94.42;100495.68;273777;1267;22311;-85
2023/02/04 20:59:32;;;;;;;17.70;5.80;;;;;;;-2.42;94.62;100490.11;273851;1257;22301;-83
2023/02/04 21:05:34;;;;;;;15.30;7.50;;;;;;;-2.40;94.76;100494.69;273824;1253;22403;-83
2023/02/04 21:11:36;;;;;;;19.20;7.20;;;;;;;-2.41;94.79;100499.45;273790;1267;23397;-83
2023/02/04 21:17:39;;;;;;;25.80;9.40;;;;;;;-2.45;94.76;100504.77;273839;1256;22285;-83
2023/02/04 21:23:42;;;;;;;15.50;6.70;;;;;;;-2.48;95.16;100508.82;273750;1259;22653;-83
2023/02/04 21:29:44;;;;;;;29.70;11.30;;;;;;;-2.51;95.23;100510.83;273706;1253;86900;-84
2023/02/04 21:35:46;;;;;;;15.70;6.90;;;;;;;-2.54;95.20;100510.85;273766;1267;22996;-83
2023/02/04 21:42:08;;;;;;;29.00;10.10;;;;;;;-2.57;95.40;100514.31;273817;1269;23755;-85
2023/02/04 21:48:10;;;;;;;23.00;9.70;;;;;;;-2.59;95.76;100523.09;273744;1267;22367;-83
2023/02/04 21:54:13;;;;;;;15.00;6.90;;;;;;;-2.57;96.13;100526.33;273806;1269;22208;-83
2023/02/04 22:00:21;;;;;;;11.10;5.30;;;;;;;-2.53;96.29;100531.94;273737;1267;22255;-83
2023/02/04 22:06:23;;;;;;;9.90;5.60;;;;;;;-2.51;96.42;100534.10;272605;1268;23301;-83
2023/02/04 22:12:25;;;;;;;11.30;5.20;;;;;;;-2.52;96.42;100543.98;270903;1260;24360;-82
2023/02/04 22:18:27;;;;;;;18.30;5.80;;;;;;;-2.67;96.44;100551.48;272366;1256;22365;-83
2023/02/04 22:24:29;;;;;;;12.80;6.10;;;;;;;-2.88;96.46;100557.98;270207;1256;22577;-82
2023/02/04 22:30:30;;;;;;;23.10;10.30;;;;;;;-3.00;96.76;100567.19;271875;1267;22543;-82
2023/02/04 22:36:32;;;;;;;14.90;5.30;;;;;;;-3.07;97.22;100565.45;271678;1257;22376;-82
2023/02/04 22:42:34;;;;;;;9.50;4.40;;;;;;;-3.14;97.36;100571.02;272541;1254;22391;-81
2023/02/04 22:48:36;;;;;;;10.80;6.90;;;;;;;-3.22;97.24;100583.95;273936;1260;22323;-84
2023/02/04 22:54:39;;;;;;;6.70;3.60;;;;;;;-3.26;97.12;100592.55;273892;1257;22421;-83
2023/02/04 23:00:41;;;;;;;7.50;4.50;;;;;;;-3.29;97.32;100597.66;273897;1257;23082;-81
2023/02/04 23:06:42;;;;;;;8.30;4.90;;;;;;;-3.30;97.63;100602.20;273609;1269;22294;-83
2023/02/04 23:12:44;;;;;;;12.50;4.80;;;;;;;-3.31;97.86;100611.88;273727;1256;22356;-82
2023/02/04 23:18:46;;;;;;;16.90;7.10;;;;;;;-3.36;98.28;100617.61;273840;1266;23542;-82
2023/02/04 23:24:48;;;;;;;12.80;6.90;;;;;;;-3.45;98.53;100625.46;273968;1269;22368;-82
2023/02/04 23:30:50;;;;;;;13.60;4.00;;;;;;;-3.55;98.72;100634.27;273696;1268;23167;-84
2023/02/04 23:36:51;;;;;;;14.30;4.80;;;;;;;-3.65;98.61;100640.57;273854;1256;23902;-83
2023/02/04 23:42:53;;;;;;;8.10;4.90;;;;;;;-3.72;98.92;100641.15;274041;1258;22873;-82
2023/02/04 23:48:55;;;;;;;6.30;2.50;;;;;;;-3.72;99.11;100649.27;273846;1256;22388;-83
2023/02/04 23:54:58;;;;;;;7.40;3.10;;;;;;;-3.78;99.88;100651.84;274048;1268;22875;-82
